createdAt,value
2023-03-24T00:00:26.925Z,27.15
2023-03-24T00:01:26.985Z,27.17
2023-03-24T00:02:27.057Z,27.14
2023-03-24T00:03:27.276Z,27.17
2023-03-24T00:04:27.239Z,27.15
2023-03-24T00:05:27.246Z,27.15
2023-03-24T00:06:27.305Z,27.17
2023-03-24T00:07:27.386Z,27.17
2023-03-24T00:08:27.476Z,27.15
2023-03-24T00:09:27.542Z,27.15
2023-03-24T00:10:27.598Z,27.14
2023-03-24T00:11:27.677Z,27.15
2023-03-24T00:12:27.797Z,27.18
2023-03-24T00:13:27.870Z,27.17
2023-03-24T00:14:27.906Z,27.15
2023-03-24T00:15:27.989Z,27.15
2023-03-24T00:16:28.077Z,27.15
2023-03-24T00:17:28.110Z,27.17
2023-03-24T00:18:28.212Z,27.17
2023-03-24T00:19:28.256Z,27.15
2023-03-24T00:20:28.347Z,27.17
2023-03-24T00:21:28.380Z,27.15
2023-03-24T00:22:28.493Z,27.18
2023-03-24T00:23:28.498Z,27.17
2023-03-24T00:24:28.598Z,27.17
2023-03-24T00:25:28.656Z,27.17
2023-03-24T00:26:28.717Z,27.17
2023-03-24T00:27:28.825Z,27.15
2023-03-24T00:28:28.881Z,27.14
2023-03-24T00:29:28.940Z,27.14
2023-03-24T00:30:29.030Z,27.14
2023-03-24T00:31:29.097Z,27.13
2023-03-24T00:32:29.240Z,27.13
2023-03-24T00:38:29.604Z,27.10
2023-03-24T00:39:29.675Z,27.09
2023-03-24T00:40:29.727Z,27.09
2023-03-24T00:41:29.808Z,27.09
2023-03-24T00:42:29.883Z,27.10
2023-03-24T00:43:29.905Z,27.07
2023-03-24T00:44:30.044Z,27.04
2023-03-24T00:45:30.065Z,27.07
2023-03-24T00:46:30.269Z,27.07
2023-03-24T00:47:30.213Z,27.04
2023-03-24T00:48:30.274Z,27.07
2023-03-24T00:49:30.336Z,27.06
2023-03-24T00:50:30.405Z,27.04
2023-03-24T00:51:30.493Z,27.03
2023-03-24T00:52:30.505Z,27.04
2023-03-24T00:53:30.593Z,27.01
2023-03-24T00:54:30.650Z,27.03
2023-03-24T00:55:30.730Z,27.03
2023-03-24T00:56:30.807Z,27.03
2023-03-24T00:57:30.879Z,27.01
2023-03-24T00:58:30.938Z,27.04
2023-03-24T00:59:31.004Z,27.04
2023-03-24T01:00:31.111Z,27.06
2023-03-24T01:01:31.135Z,27.06
2023-03-24T01:02:31.300Z,27.04
2023-03-24T01:03:31.303Z,27.04
2023-03-24T01:04:31.340Z,27.06
2023-03-24T01:05:31.401Z,27.06
2023-03-24T01:06:31.493Z,27.06
2023-03-24T01:07:31.543Z,27.07
2023-03-24T01:08:31.593Z,27.04
2023-03-24T01:09:31.663Z,27.04
2023-03-24T01:10:31.733Z,27.04
2023-03-24T01:11:31.771Z,27.01
2023-03-24T01:12:31.834Z,27.01
2023-03-24T01:13:31.927Z,27.01
2023-03-24T01:14:31.952Z,27.03
2023-03-24T01:15:32.072Z,27.01
2023-03-24T01:16:32.167Z,27.01
2023-03-24T01:17:32.246Z,26.97
2023-03-24T01:18:32.281Z,26.99
2023-03-24T01:19:32.332Z,27.00
2023-03-24T01:20:32.420Z,27.00
2023-03-24T01:21:32.503Z,26.99
2023-03-24T01:22:32.556Z,26.99
2023-03-24T01:23:32.637Z,27.00
2023-03-24T01:24:32.729Z,27.00
2023-03-24T01:25:32.800Z,27.01
2023-03-24T01:26:32.827Z,26.99
2023-03-24T01:27:32.935Z,27.00
2023-03-24T01:28:32.978Z,27.00
2023-03-24T01:29:33.042Z,27.01
2023-03-24T01:30:33.109Z,27.01
2023-03-24T01:31:33.198Z,27.03
2023-03-24T01:32:33.278Z,27.00
2023-03-24T01:33:33.293Z,27.01
2023-03-24T01:34:33.401Z,27.00
2023-03-24T01:35:33.496Z,26.97
2023-03-24T01:36:33.539Z,26.94
2023-03-24T01:37:33.587Z,26.96
2023-03-24T01:38:33.677Z,26.93
2023-03-24T01:39:33.715Z,26.90
2023-03-24T01:40:33.755Z,26.90
2023-03-24T01:41:33.800Z,26.92
2023-03-24T01:42:33.885Z,26.89
2023-03-24T01:43:33.979Z,26.90
2023-03-24T01:44:34.061Z,26.87
2023-03-24T01:45:34.174Z,26.89
2023-03-24T01:46:34.250Z,26.87
2023-03-24T01:47:35.261Z,26.85
2023-03-24T01:48:34.362Z,26.83
2023-03-24T01:49:34.439Z,26.83
2023-03-24T01:50:34.493Z,26.83
2023-03-24T01:51:34.544Z,26.85
2023-03-24T01:52:34.578Z,26.82
2023-03-24T01:53:34.651Z,26.86
2023-03-24T01:54:34.756Z,26.85
2023-03-24T01:55:34.844Z,26.82
2023-03-24T01:56:34.942Z,26.86
2023-03-24T01:57:34.978Z,26.83
2023-03-24T01:58:35.054Z,26.82
2023-03-24T01:59:35.107Z,26.83
2023-03-24T02:00:35.194Z,26.82
2023-03-24T02:01:35.298Z,26.85
2023-03-24T02:02:35.417Z,26.83
2023-03-24T02:03:35.430Z,26.82
2023-03-24T02:04:35.530Z,26.85
2023-03-24T02:05:35.593Z,26.85
2023-03-24T02:06:35.641Z,26.83
2023-03-24T02:07:35.715Z,26.83
2023-03-24T02:08:35.771Z,26.85
2023-03-24T02:09:35.818Z,26.80
2023-03-24T02:10:35.885Z,26.80
2023-03-24T02:11:35.912Z,26.76
2023-03-24T02:12:35.981Z,26.76
2023-03-24T02:13:36.046Z,26.76
2023-03-24T02:14:36.113Z,26.75
2023-03-24T02:15:36.191Z,26.75
2023-03-24T02:16:36.231Z,26.75
2023-03-24T02:17:36.253Z,26.75
2023-03-24T02:18:36.296Z,26.75
2023-03-24T02:19:36.353Z,26.75
2023-03-24T02:20:36.419Z,26.75
2023-03-24T02:21:36.523Z,26.76
2023-03-24T02:22:36.544Z,26.76
2023-03-24T02:23:36.586Z,26.80
2023-03-24T02:24:36.645Z,26.78
2023-03-24T02:25:37.782Z,26.79
2023-03-24T02:26:36.821Z,26.76
2023-03-24T02:27:36.877Z,26.79
2023-03-24T02:28:36.960Z,26.82
2023-03-24T02:29:37.048Z,26.78
2023-03-24T02:30:37.090Z,26.78
2023-03-24T02:31:37.186Z,26.78
2023-03-24T02:32:37.248Z,26.76
2023-03-24T02:33:37.248Z,26.75
2023-03-24T02:34:37.318Z,26.76
2023-03-24T02:35:37.398Z,26.76
2023-03-24T02:36:37.443Z,26.73
2023-03-24T02:37:37.447Z,26.75
2023-03-24T02:38:37.481Z,26.76
2023-03-24T02:47:38.098Z,26.70
2023-03-24T02:48:38.077Z,26.70
2023-03-24T02:49:38.156Z,26.73
2023-03-24T02:50:38.210Z,26.70
2023-03-24T02:51:38.255Z,26.69
2023-03-24T02:52:38.322Z,26.69
2023-03-24T02:53:38.349Z,26.70
2023-03-24T02:54:38.411Z,26.69
2023-03-24T02:55:38.484Z,26.68
2023-03-24T02:56:38.615Z,26.69
2023-03-24T02:57:38.611Z,26.68
2023-03-24T02:58:38.674Z,26.64
2023-03-24T02:59:38.740Z,26.68
2023-03-24T03:00:38.800Z,26.68
2023-03-24T03:01:38.853Z,26.69
2023-03-24T03:02:38.914Z,26.68
2023-03-24T03:03:38.948Z,26.69
2023-03-24T03:04:39.061Z,26.69
2023-03-24T03:05:39.081Z,26.66
2023-03-24T03:06:39.161Z,26.68
2023-03-24T03:07:39.194Z,26.64
2023-03-24T03:08:39.236Z,26.66
2023-03-24T03:09:39.299Z,26.66
2023-03-24T03:10:39.360Z,26.63
2023-03-24T03:11:39.427Z,26.66
2023-03-24T03:12:39.450Z,26.64
2023-03-24T03:13:39.519Z,26.64
2023-03-24T03:14:39.572Z,26.63
2023-03-24T03:15:39.598Z,26.66
2023-03-24T03:16:39.662Z,26.64
2023-03-24T03:17:39.790Z,26.68
2023-03-24T03:18:39.789Z,26.66
2023-03-24T03:19:39.853Z,26.68
2023-03-24T03:20:39.893Z,26.68
2023-03-24T03:21:39.993Z,26.70
2023-03-24T03:22:40.007Z,26.66
2023-03-24T03:23:40.091Z,26.66
2023-03-24T03:24:40.092Z,26.63
2023-03-24T03:25:40.123Z,26.62
2023-03-24T03:26:40.209Z,26.60
2023-03-24T03:27:40.240Z,26.58
2023-03-24T03:28:40.322Z,26.55
2023-03-24T03:29:40.334Z,26.53
2023-03-24T03:30:40.381Z,26.56
2023-03-24T03:31:40.587Z,26.51
2023-03-24T03:32:40.505Z,26.51
2023-03-24T03:33:40.608Z,26.46
2023-03-24T03:34:40.623Z,26.49
2023-03-24T03:35:40.674Z,26.49
2023-03-24T03:36:40.710Z,26.48
2023-03-24T03:37:40.785Z,26.45
2023-03-24T03:38:40.829Z,26.42
2023-03-24T03:39:40.886Z,26.45
2023-03-24T03:40:40.965Z,26.45
2023-03-24T03:41:40.984Z,26.43
2023-03-24T03:42:41.039Z,26.41
2023-03-24T03:43:41.080Z,26.41
2023-03-24T03:44:41.142Z,26.41
2023-03-24T03:45:41.188Z,26.38
2023-03-24T03:46:41.314Z,26.36
2023-03-24T03:47:41.371Z,26.36
2023-03-24T03:48:41.360Z,26.39
2023-03-24T03:49:41.422Z,26.34
2023-03-24T03:50:41.465Z,26.36
2023-03-24T03:51:41.529Z,26.35
2023-03-24T03:52:41.602Z,26.35
2023-03-24T03:53:41.618Z,26.34
2023-03-24T03:54:41.635Z,26.31
2023-03-24T03:55:41.702Z,26.31
2023-03-24T03:56:41.767Z,26.34
2023-03-24T03:57:41.823Z,26.36
2023-03-24T03:58:41.845Z,26.35
2023-03-24T03:59:41.920Z,26.38
2023-03-24T04:00:41.973Z,26.39
2023-03-24T04:01:42.050Z,26.42
2023-03-24T04:02:42.129Z,26.39
2023-03-24T04:03:42.158Z,26.43
2023-03-24T04:04:42.152Z,26.43
2023-03-24T04:05:42.307Z,26.45
2023-03-24T04:06:42.253Z,26.46
2023-03-24T04:07:42.275Z,26.43
2023-03-24T04:08:42.337Z,26.42
2023-03-24T04:09:42.421Z,26.42
2023-03-24T04:10:43.203Z,26.39
2023-03-24T04:11:42.527Z,26.42
2023-03-24T04:12:42.556Z,26.39
2023-03-24T04:13:42.604Z,26.41
2023-03-24T04:14:42.646Z,26.41
2023-03-24T04:15:42.970Z,26.42
2023-03-24T04:16:44.782Z,26.42
2023-03-24T04:17:42.832Z,26.41
2023-03-24T04:18:42.964Z,26.42
2023-03-24T04:19:42.878Z,26.38
2023-03-24T04:20:42.894Z,26.34
2023-03-24T04:21:43.012Z,26.32
2023-03-24T04:22:42.958Z,26.34
2023-03-24T04:23:42.993Z,26.32
2023-03-24T04:24:43.024Z,26.31
2023-03-24T04:25:43.208Z,26.29
2023-03-24T04:26:43.084Z,26.29
2023-03-24T04:27:43.092Z,26.29
2023-03-24T04:28:43.133Z,26.29
2023-03-24T04:29:43.167Z,26.29
2023-03-24T04:30:43.214Z,26.27
2023-03-24T04:31:43.352Z,26.25
2023-03-24T04:32:43.303Z,26.25
2023-03-24T04:33:43.287Z,26.24
2023-03-24T04:34:43.331Z,26.25
2023-03-24T04:35:43.608Z,26.24
2023-03-24T04:36:43.400Z,26.24
2023-03-24T04:37:43.412Z,26.24
2023-03-24T04:38:43.442Z,26.24
2023-03-24T04:44:43.587Z,26.25
2023-03-24T04:45:43.800Z,26.24
2023-03-24T04:46:43.647Z,26.25
2023-03-24T04:47:43.710Z,26.24
2023-03-24T04:48:43.758Z,26.19
2023-03-24T04:49:43.752Z,26.18
2023-03-24T04:50:43.785Z,26.19
2023-03-24T04:51:43.826Z,26.18
2023-03-24T04:52:43.863Z,26.15
2023-03-24T04:53:43.952Z,26.17
2023-03-24T04:54:43.950Z,26.17
2023-03-24T04:55:44.197Z,26.15
2023-03-24T04:56:44.045Z,26.15
2023-03-24T04:57:44.032Z,26.17
2023-03-24T04:58:44.049Z,26.15
2023-03-24T04:59:44.081Z,26.15
2023-03-24T05:00:44.249Z,26.12
2023-03-24T05:01:44.182Z,26.12
2023-03-24T05:09:44.442Z,25.95
2023-03-24T05:10:44.479Z,25.94
2023-03-24T05:11:44.502Z,25.94
2023-03-24T05:12:44.559Z,25.94
2023-03-24T05:13:44.557Z,25.98
2023-03-24T05:14:44.635Z,25.94
2023-03-24T05:15:44.765Z,25.95
2023-03-24T05:16:44.759Z,25.94
2023-03-24T05:17:44.794Z,25.92
2023-03-24T05:18:44.748Z,25.92
2023-03-24T05:19:44.764Z,25.91
2023-03-24T05:20:44.820Z,25.90
2023-03-24T05:21:44.818Z,25.91
2023-03-24T05:22:44.879Z,25.92
2023-03-24T05:23:44.890Z,25.91
2023-03-24T05:24:44.929Z,25.91
2023-03-24T05:25:45.167Z,25.90
2023-03-24T05:26:45.074Z,25.91
2023-03-24T05:40:45.504Z,26.04
2023-03-24T05:41:45.541Z,26.07
2023-03-24T05:42:45.560Z,26.05
2023-03-24T05:43:45.626Z,26.08
2023-03-24T05:44:45.714Z,26.05
2023-03-24T05:45:46.077Z,26.11
2023-03-24T05:46:45.861Z,26.11
2023-03-24T05:47:45.934Z,26.14
2023-03-24T05:48:45.911Z,26.11
2023-03-24T05:49:45.993Z,26.12
2023-03-24T05:50:46.045Z,26.09
2023-03-24T05:51:46.109Z,26.09
2023-03-24T05:52:46.207Z,26.09
2023-03-24T05:53:46.215Z,26.08
2023-03-24T05:54:46.235Z,26.09
2023-03-24T05:55:46.474Z,26.08
2023-03-24T05:56:46.432Z,26.07
2023-03-24T05:57:46.451Z,26.05
2023-03-24T05:58:46.552Z,26.04
2023-03-24T06:00:46.639Z,26.02
2023-03-24T06:02:46.929Z,26.02
2023-03-24T06:03:46.985Z,26.00
2023-03-24T06:04:46.896Z,26.00
2023-03-24T06:05:47.233Z,26.00
2023-03-24T06:06:47.016Z,25.95
2023-03-24T06:07:46.999Z,25.94
2023-03-24T06:08:47.001Z,25.92
2023-03-24T06:09:47.533Z,25.92
2023-03-24T06:10:47.094Z,25.91
2023-03-24T06:11:47.177Z,25.88
2023-03-24T06:14:47.280Z,25.94
2023-03-24T06:15:47.541Z,25.95
2023-03-24T06:16:47.328Z,25.95
2023-03-24T06:17:47.361Z,25.95
2023-03-24T06:18:47.404Z,25.92
2023-03-24T06:19:47.430Z,25.91
2023-03-24T06:20:47.478Z,25.94
2023-03-24T06:21:47.508Z,25.94
2023-03-24T06:22:47.543Z,25.91
2023-03-24T06:23:47.586Z,25.94
2023-03-24T06:24:47.609Z,25.95
2023-03-24T06:25:47.728Z,25.97
2023-03-24T06:26:47.720Z,25.97
2023-03-24T06:27:47.721Z,25.97
2023-03-24T06:28:48.191Z,25.95
2023-03-24T06:29:47.789Z,25.95
2023-03-24T06:30:47.907Z,25.94
2023-03-24T06:31:48.319Z,25.97
2023-03-24T06:36:48.241Z,26.00
2023-03-24T06:37:48.766Z,26.00
2023-03-24T06:38:48.430Z,26.04
2023-03-24T06:39:48.361Z,26.05
2023-03-24T06:40:48.473Z,26.11
2023-03-24T06:41:48.511Z,26.17
2023-03-24T06:42:48.595Z,26.21
2023-03-24T06:43:48.651Z,26.29
2023-03-24T06:44:48.677Z,26.32
2023-03-24T06:45:55.849Z,26.38
2023-03-24T06:47:49.382Z,26.42
2023-03-24T06:48:49.046Z,26.45
2023-03-24T06:50:48.975Z,26.51
2023-03-24T06:51:49.027Z,26.51
2023-03-24T06:52:49.089Z,26.51
2023-03-24T06:53:49.077Z,26.49
2023-03-24T06:54:49.197Z,26.46
2023-03-24T06:55:49.230Z,26.45
2023-03-24T06:56:49.258Z,26.41
2023-03-24T06:57:49.233Z,26.41
2023-03-24T06:58:49.354Z,26.38
2023-03-24T06:59:49.619Z,26.35
2023-03-24T07:00:49.365Z,26.32
2023-03-24T07:01:49.466Z,26.31
2023-03-24T07:03:49.618Z,26.25
2023-03-24T07:04:50.351Z,26.22
2023-03-24T07:05:49.543Z,26.19
2023-03-24T07:07:04.962Z,26.18
2023-03-24T07:08:16.723Z,26.15
2023-03-24T07:08:50.656Z,26.09
2023-03-24T07:10:49.724Z,26.00
2023-03-24T07:11:49.794Z,25.97
2023-03-24T07:12:49.813Z,25.94
2023-03-24T07:13:49.864Z,25.87
2023-03-24T07:14:49.916Z,25.81
2023-03-24T07:15:49.941Z,25.81
2023-03-24T07:16:50.042Z,25.78
2023-03-24T07:17:50.064Z,25.78
2023-03-24T07:19:50.053Z,25.71
2023-03-24T07:20:50.102Z,25.73
2023-03-24T07:21:50.248Z,25.70
2023-03-24T07:22:50.275Z,25.70
2023-03-24T07:25:50.314Z,25.57
2023-03-24T07:26:50.342Z,25.53
2023-03-24T07:27:50.350Z,25.53
2023-03-24T07:28:50.464Z,25.50
2023-03-24T07:34:50.703Z,25.46
2023-03-24T07:35:50.711Z,25.49
2023-03-24T07:36:51.030Z,25.49
2023-03-24T07:37:50.851Z,25.49
2023-03-24T07:38:50.886Z,25.50
2023-03-24T07:39:50.891Z,25.49
2023-03-24T07:40:51.103Z,25.47
2023-03-24T07:41:51.033Z,25.49
2023-03-24T07:42:51.235Z,25.46
2023-03-24T07:43:51.243Z,25.47
2023-03-24T07:44:51.295Z,25.49
2023-03-24T07:45:51.404Z,25.46
2023-03-24T07:46:51.457Z,25.46
2023-03-24T07:47:51.928Z,25.43
2023-03-24T07:49:51.693Z,25.40
2023-03-24T07:50:51.745Z,25.39
2023-03-24T07:51:51.809Z,25.40
2023-03-24T07:52:52.061Z,25.40
2023-03-24T07:57:52.292Z,25.37
2023-03-24T08:03:52.632Z,25.02
2023-03-24T08:04:52.846Z,25.03
2023-03-24T08:05:52.642Z,25.05
2023-03-24T08:09:52.821Z,25.03
2023-03-24T08:10:52.860Z,25.02
2023-03-24T08:11:52.941Z,25.02
2023-03-24T08:12:52.986Z,25.06
2023-03-24T08:13:53.355Z,25.08
2023-03-24T08:14:53.844Z,25.08
2023-03-24T08:20:00.078Z,25.10
2023-03-24T08:20:54.379Z,25.12
2023-03-24T08:24:53.537Z,25.17
2023-03-24T08:25:53.601Z,25.19
2023-03-24T08:26:53.642Z,25.19
2023-03-24T08:27:53.743Z,25.19
2023-03-24T08:32:54.413Z,25.58
2023-03-24T08:33:54.884Z,25.66
2023-03-24T08:34:54.076Z,25.77
2023-03-24T08:35:54.133Z,25.87
2023-03-24T08:36:54.185Z,25.94
2023-03-24T08:37:54.299Z,26.05
2023-03-24T08:40:54.495Z,26.27
2023-03-24T08:41:54.508Z,26.31
2023-03-24T08:42:54.572Z,26.35
2023-03-24T08:43:54.739Z,26.36
2023-03-24T08:50:54.999Z,26.14
2023-03-24T08:51:55.114Z,26.15
2023-03-24T08:52:56.653Z,26.14
2023-03-24T08:53:55.216Z,26.11
2023-03-24T08:54:55.269Z,26.09
2023-03-24T08:55:55.351Z,26.08
2023-03-24T08:56:55.498Z,26.09
2023-03-24T08:57:55.494Z,26.08
2023-03-24T08:58:55.865Z,26.11
2023-03-24T09:02:55.893Z,26.24
2023-03-24T09:03:55.927Z,26.28
2023-03-24T09:04:55.949Z,26.32
2023-03-24T09:05:56.351Z,26.35
2023-03-24T09:06:56.008Z,26.42
2023-03-24T09:07:56.265Z,26.46
2023-03-24T09:08:56.156Z,26.48
2023-03-24T09:09:56.556Z,26.55
2023-03-24T09:10:56.367Z,26.60
2023-03-24T09:11:56.369Z,26.64
2023-03-24T09:12:56.486Z,26.68
2023-03-24T09:13:56.529Z,26.73
2023-03-24T09:14:56.630Z,26.79
2023-03-24T09:15:56.722Z,26.80
2023-03-24T09:16:56.807Z,26.82
2023-03-24T09:17:56.888Z,26.82
2023-03-24T09:18:57.373Z,26.80
2023-03-24T09:22:57.171Z,26.75
2023-03-24T09:23:57.311Z,26.73
2023-03-24T09:27:57.452Z,26.68
2023-03-24T09:28:57.515Z,26.69
2023-03-24T09:29:57.562Z,26.69
2023-03-24T09:30:57.697Z,26.72
2023-03-24T09:31:57.764Z,26.73
2023-03-24T09:32:57.817Z,26.79
2023-03-24T09:33:58.412Z,26.86
2023-03-24T09:34:58.066Z,26.90
2023-03-24T09:36:00.116Z,26.97
2023-03-24T09:36:58.119Z,27.04
2023-03-24T09:37:58.136Z,27.06
2023-03-24T09:38:58.397Z,27.07
2023-03-24T09:44:58.678Z,27.20
2023-03-24T09:45:58.894Z,27.23
2023-03-24T09:46:58.832Z,27.18
2023-03-24T09:47:58.963Z,27.20
2023-03-24T09:48:59.042Z,27.23
2023-03-24T09:49:59.036Z,27.24
2023-03-24T09:50:59.097Z,27.29
2023-03-24T09:51:59.194Z,27.30
2023-03-24T09:52:59.438Z,27.31
2023-03-24T09:53:59.617Z,27.33
2023-03-24T09:59:59.657Z,27.45
2023-03-24T10:00:59.783Z,27.47
2023-03-24T10:01:59.784Z,27.50
2023-03-24T10:02:59.934Z,27.51
2023-03-24T10:04:01.314Z,27.52
2023-03-24T10:05:00.019Z,27.55
2023-03-24T10:06:01.026Z,27.50
2023-03-24T10:11:00.103Z,27.52
2023-03-24T10:12:00.180Z,27.52
2023-03-24T10:13:00.172Z,27.54
2023-03-24T10:14:01.473Z,27.52
2023-03-24T10:15:00.233Z,27.57
2023-03-24T10:16:00.261Z,27.54
2023-03-24T10:17:00.291Z,27.55
2023-03-24T10:18:00.358Z,27.54
2023-03-24T10:19:00.442Z,27.50
2023-03-24T10:20:00.648Z,27.48
2023-03-24T10:21:00.570Z,27.50
2023-03-24T10:22:00.629Z,27.44
2023-03-24T10:23:00.726Z,27.43
2023-03-24T10:24:00.906Z,27.43
2023-03-24T10:26:00.931Z,27.37
2023-03-24T10:27:01.005Z,27.36
2023-03-24T10:28:01.082Z,27.33
2023-03-24T10:29:01.445Z,27.33
2023-03-24T10:30:01.256Z,27.31
2023-03-24T10:31:01.342Z,27.27
2023-03-24T10:32:01.473Z,27.27
2023-03-24T10:33:01.480Z,27.24
2023-03-24T10:34:01.953Z,27.21
2023-03-24T10:37:01.808Z,27.18
2023-03-24T10:38:01.865Z,27.15
2023-03-24T10:39:12.905Z,27.13
2023-03-24T10:40:02.955Z,27.14
2023-03-24T10:41:01.999Z,27.13
2023-03-24T10:42:02.060Z,27.10
2023-03-24T10:43:06.698Z,27.04
2023-03-24T10:44:03.061Z,27.03
2023-03-24T10:45:02.431Z,27.09
2023-03-24T10:46:02.262Z,27.09
2023-03-24T10:51:02.284Z,27.00
2023-03-24T10:52:02.309Z,26.97
2023-03-24T10:53:02.385Z,26.96
2023-03-24T10:54:03.419Z,26.94
2023-03-24T10:56:02.456Z,26.94
2023-03-24T10:57:02.590Z,26.94
2023-03-24T10:58:02.597Z,26.90
2023-03-24T10:59:02.648Z,26.92
2023-03-24T11:00:02.741Z,26.92
2023-03-24T11:01:02.803Z,26.89
2023-03-24T11:02:02.885Z,26.90
2023-03-24T11:03:02.960Z,26.87
2023-03-24T11:04:02.920Z,26.89
2023-03-24T11:05:02.977Z,26.87
2023-03-24T11:06:03.083Z,26.87
2023-03-24T11:07:03.148Z,26.89
2023-03-24T11:08:03.200Z,26.89
2023-03-24T11:09:03.310Z,26.86
2023-03-24T11:10:09.826Z,26.83
2023-03-24T11:12:03.439Z,26.79
2023-03-24T11:13:03.445Z,26.85
2023-03-24T11:14:03.479Z,26.86
2023-03-24T11:15:17.612Z,26.90
2023-03-24T11:16:04.585Z,26.89
2023-03-24T11:18:03.775Z,26.97
2023-03-24T11:19:03.867Z,26.97
2023-03-24T11:20:04.022Z,27.01
2023-03-24T11:25:04.246Z,27.06
2023-03-24T11:26:04.280Z,27.06
2023-03-24T11:27:04.369Z,27.04
2023-03-24T11:28:04.474Z,27.10
2023-03-24T11:29:04.552Z,27.11
2023-03-24T11:30:04.966Z,27.13
2023-03-24T11:31:04.660Z,27.14
2023-03-24T11:32:04.779Z,27.17
2023-03-24T11:33:04.832Z,27.17
2023-03-24T11:34:04.939Z,27.15
2023-03-24T11:35:05.461Z,27.18
2023-03-24T11:37:05.060Z,27.17
2023-03-24T11:38:05.115Z,27.17
2023-03-24T11:39:05.287Z,27.15
2023-03-24T11:40:05.323Z,27.13
2023-03-24T11:41:05.382Z,27.11
2023-03-24T11:42:05.391Z,27.09
2023-03-24T11:43:05.522Z,27.06
2023-03-24T11:44:05.617Z,27.04
2023-03-24T11:45:05.601Z,27.01
2023-03-24T11:46:05.686Z,27.00
2023-03-24T11:47:05.725Z,27.01
2023-03-24T11:48:05.782Z,27.00
2023-03-24T11:49:05.798Z,27.01
2023-03-24T11:50:05.963Z,27.00
2023-03-24T11:51:05.927Z,26.99
2023-03-24T11:52:06.041Z,27.03
2023-03-24T11:53:06.084Z,27.01
2023-03-24T11:54:06.156Z,27.01
2023-03-24T11:55:06.472Z,27.04
2023-03-24T11:57:06.395Z,27.06
2023-03-24T11:58:06.493Z,27.10
2023-03-24T11:59:06.540Z,27.11
2023-03-24T12:00:06.777Z,27.11
2023-03-24T12:01:06.933Z,27.13
2023-03-24T12:02:06.770Z,27.15
2023-03-24T12:03:06.959Z,27.17
2023-03-24T12:04:06.982Z,27.17
2023-03-24T12:05:07.051Z,27.21
2023-03-24T12:06:07.128Z,27.18
2023-03-24T12:07:07.378Z,27.18
2023-03-24T12:08:07.232Z,27.21
2023-03-24T12:09:07.346Z,27.18
2023-03-24T12:10:07.390Z,27.20
2023-03-24T12:11:07.472Z,27.18
2023-03-24T12:12:07.969Z,27.18
2023-03-24T12:13:08.373Z,27.18
2023-03-24T12:14:07.737Z,27.18
2023-03-24T12:15:20.608Z,27.21
2023-03-24T12:16:08.857Z,27.17
2023-03-24T12:21:07.933Z,27.21
2023-03-24T12:22:07.980Z,27.23
2023-03-24T12:23:07.995Z,27.24
2023-03-24T12:24:08.042Z,27.24
2023-03-24T12:25:08.221Z,27.24
2023-03-24T12:26:08.185Z,27.23
2023-03-24T12:27:08.273Z,27.26
2023-03-24T12:28:08.340Z,27.27
2023-03-24T12:29:08.389Z,27.27
2023-03-24T12:30:08.956Z,27.27
2023-03-24T12:31:09.093Z,27.27
2023-03-24T12:39:09.068Z,27.34
2023-03-24T12:40:09.455Z,27.34
2023-03-24T12:41:09.289Z,27.37
2023-03-24T12:42:09.303Z,27.36
2023-03-24T12:43:09.332Z,27.38
2023-03-24T12:44:09.406Z,27.37
2023-03-24T12:45:09.480Z,27.38
2023-03-24T12:46:09.653Z,27.38
2023-03-24T12:47:09.609Z,27.41
2023-03-24T12:48:09.748Z,27.41
2023-03-24T12:49:09.738Z,27.43
2023-03-24T12:50:09.807Z,27.41
2023-03-24T12:51:09.916Z,27.40
2023-03-24T12:52:09.980Z,27.43
2023-03-24T12:53:11.019Z,27.40
2023-03-24T12:54:10.036Z,27.41
2023-03-24T12:55:10.040Z,27.43
2023-03-24T12:56:10.112Z,27.43
2023-03-24T12:57:10.134Z,27.44
2023-03-24T12:58:10.129Z,27.41
2023-03-24T12:59:10.145Z,27.44
2023-03-24T13:00:10.137Z,27.44
2023-03-24T13:01:10.205Z,27.40
2023-03-24T13:02:10.260Z,27.43
2023-03-24T13:03:10.231Z,27.43
2023-03-24T13:04:10.232Z,27.45
2023-03-24T13:05:10.240Z,27.45
2023-03-24T13:06:16.844Z,27.44
2023-03-24T13:07:11.324Z,27.45
2023-03-24T13:10:10.418Z,27.45
2023-03-24T13:11:13.181Z,27.47
2023-03-24T13:12:11.411Z,27.47
2023-03-24T13:17:10.528Z,27.50
2023-03-24T13:18:10.584Z,27.48
2023-03-24T13:19:10.608Z,27.50
2023-03-24T13:20:10.592Z,27.50
2023-03-24T13:21:10.623Z,27.51
2023-03-24T13:22:10.646Z,27.51
2023-03-24T13:23:10.713Z,27.52
2023-03-24T13:24:12.869Z,27.50
2023-03-24T13:25:10.762Z,27.51
2023-03-24T13:26:10.796Z,27.52
2023-03-24T13:27:10.780Z,27.48
2023-03-24T13:28:10.834Z,27.50
2023-03-24T13:29:10.905Z,27.48
2023-03-24T13:33:10.973Z,27.51
2023-03-24T13:34:10.919Z,27.51
2023-03-24T13:35:10.938Z,27.51
2023-03-24T13:36:11.051Z,27.48
2023-03-24T13:42:11.107Z,27.47
2023-03-24T13:45:11.204Z,27.47
2023-03-24T13:46:11.231Z,27.48
2023-03-24T13:47:11.225Z,27.52
2023-03-24T13:48:11.492Z,27.51
2023-03-24T13:57:11.556Z,27.48
2023-03-24T13:58:11.515Z,27.47
2023-03-24T13:59:11.538Z,27.45
2023-03-24T14:00:11.608Z,27.47
2023-03-24T14:01:11.706Z,27.45
2023-03-24T14:02:11.875Z,27.45
2023-03-24T14:03:11.850Z,27.44
2023-03-24T14:04:11.919Z,27.44
2023-03-24T14:05:11.946Z,27.45
2023-03-24T14:06:12.042Z,27.44
2023-03-24T14:07:12.100Z,27.43
2023-03-24T14:08:12.177Z,27.41
2023-03-24T14:09:12.222Z,27.38
2023-03-24T14:10:12.331Z,27.37
2023-03-24T14:11:12.400Z,27.34
2023-03-24T14:12:12.516Z,27.34
2023-03-24T14:13:12.531Z,27.30
2023-03-24T14:14:12.613Z,27.31
2023-03-24T14:15:12.675Z,27.29
2023-03-24T14:16:12.786Z,27.29
2023-03-24T14:17:12.808Z,27.31
2023-03-24T14:18:12.903Z,27.27
2023-03-24T14:19:12.954Z,27.30
2023-03-24T14:20:13.044Z,27.29
2023-03-24T14:21:13.074Z,27.30
2023-03-24T14:22:13.224Z,27.29
2023-03-24T14:23:13.230Z,27.30
2023-03-24T14:24:13.295Z,27.31
2023-03-24T14:25:13.374Z,27.30
2023-03-24T14:26:13.513Z,27.33
2023-03-24T14:27:13.538Z,27.33
2023-03-24T14:28:13.635Z,27.34
2023-03-24T14:29:13.736Z,27.33
2023-03-24T14:30:13.791Z,27.31
2023-03-24T14:34:14.104Z,27.31
2023-03-24T14:35:14.097Z,27.31
2023-03-24T14:36:14.194Z,27.31
2023-03-24T14:37:14.253Z,27.30
2023-03-24T14:38:14.354Z,27.31
2023-03-24T14:39:14.419Z,27.33
2023-03-24T14:40:17.971Z,27.31
2023-03-24T14:41:15.501Z,27.33
2023-03-24T14:42:14.548Z,27.31
2023-03-24T14:47:14.630Z,27.36
2023-03-24T14:48:14.674Z,27.34
2023-03-24T14:49:14.733Z,27.34
2023-03-24T14:50:14.712Z,27.37
2023-03-24T14:51:14.718Z,27.34
2023-03-24T14:52:14.826Z,27.37
2023-03-24T14:53:14.858Z,27.38
2023-03-24T14:54:15.099Z,27.38
2023-03-24T14:57:15.170Z,27.38
2023-03-24T14:58:15.220Z,27.40
2023-03-24T14:59:15.291Z,27.38
2023-03-24T15:00:15.319Z,27.38
2023-03-24T15:01:15.463Z,27.40
2023-03-24T15:02:15.559Z,27.40
2023-03-24T15:03:15.571Z,27.40
2023-03-24T15:04:15.644Z,27.40
2023-03-24T15:05:15.664Z,27.38
2023-03-24T15:06:15.728Z,27.40
2023-03-24T15:07:15.812Z,27.38
2023-03-24T15:08:15.920Z,27.41
2023-03-24T15:09:16.001Z,27.41
2023-03-24T15:10:15.970Z,27.40
2023-03-24T15:11:16.080Z,27.41
2023-03-24T15:12:16.199Z,27.40
2023-03-24T15:13:16.183Z,27.40
2023-03-24T15:14:16.281Z,27.40
2023-03-24T15:15:16.395Z,27.38
2023-03-24T15:16:16.452Z,27.40
2023-03-24T15:17:16.467Z,27.41
2023-03-24T15:23:16.944Z,27.40
2023-03-24T15:24:17.135Z,27.41
2023-03-24T15:25:17.104Z,27.41
2023-03-24T15:26:17.130Z,27.37
2023-03-24T15:27:17.242Z,27.41
2023-03-24T15:28:17.284Z,27.38
2023-03-24T15:29:17.368Z,27.38
2023-03-24T15:30:17.442Z,27.40
2023-03-24T15:31:17.529Z,27.37
2023-03-24T15:32:17.611Z,27.40
2023-03-24T15:33:17.661Z,27.37
2023-03-24T15:34:17.705Z,27.40
2023-03-24T15:35:17.805Z,27.38
2023-03-24T15:36:17.947Z,27.36
2023-03-24T15:37:17.920Z,27.37
2023-03-24T15:38:18.010Z,27.36
2023-03-24T15:39:18.076Z,27.36
2023-03-24T15:40:18.162Z,27.36
2023-03-24T15:41:18.237Z,27.37
2023-03-24T15:42:18.334Z,27.37
2023-03-24T15:43:18.398Z,27.36
2023-03-24T15:44:18.455Z,27.36
2023-03-24T15:45:18.496Z,27.34
2023-03-24T15:46:18.596Z,27.34
2023-03-24T15:47:18.694Z,27.33
2023-03-24T15:48:18.755Z,27.33
2023-03-24T15:49:18.801Z,27.33
2023-03-24T15:50:18.860Z,27.33
2023-03-24T15:51:18.950Z,27.31